sensor_id;sensor_type;location;lat;lon;timestamp;temperature;humidity
19483;DHT22;9882;51.166;6.992;2024-02-14T00:01:08;8.20;99.90
19483;DHT22;9882;51.166;6.992;2024-02-14T00:03:38;8.20;99.90
19483;DHT22;9882;51.166;6.992;2024-02-14T00:06:08;8.20;99.90
19483;DHT22;9882;51.166;6.992;2024-02-14T00:08:42;8.10;99.90
19483;DHT22;9882;51.166;6.992;2024-02-14T00:11:15;8.20;99.90
19483;DHT22;9882;51.166;6.992;2024-02-14T00:13:49;8.10;99.90
19483;DHT22;9882;51.166;6.992;2024-02-14T00:16:25;8.10;99.90
19483;DHT22;9882;51.166;6.992;2024-02-14T00:18:59;8.20;99.90
19483;DHT22;9882;51.166;6.992;2024-02-14T00:21:31;8.20;99.90
19483;DHT22;9882;51.166;6.992;2024-02-14T00:24:04;8.20;99.90
19483;DHT22;9882;51.166;6.992;2024-02-14T00:26:33;8.20;99.90
19483;DHT22;9882;51.166;6.992;2024-02-14T00:29:03;8.20;99.90
19483;DHT22;9882;51.166;6.992;2024-02-14T00:31:36;8.20;99.90
19483;DHT22;9882;51.166;6.992;2024-02-14T00:34:05;8.20;99.90
19483;DHT22;9882;51.166;6.992;2024-02-14T00:36:34;8.20;99.90
19483;DHT22;9882;51.166;6.992;2024-02-14T00:39:03;8.20;99.90
19483;DHT22;9882;51.166;6.992;2024-02-14T00:41:32;8.10;99.90
19483;DHT22;9882;51.166;6.992;2024-02-14T00:44:02;8.10;99.90
19483;DHT22;9882;51.166;6.992;2024-02-14T00:46:31;8.10;99.90
19483;DHT22;9882;51.166;6.992;2024-02-14T00:49:01;8.10;99.90
19483;DHT22;9882;51.166;6.992;2024-02-14T00:51:30;8.10;99.90
19483;DHT22;9882;51.166;6.992;2024-02-14T00:53:59;8.10;99.90
19483;DHT22;9882;51.166;6.992;2024-02-14T00:56:31;8.10;99.90
19483;DHT22;9882;51.166;6.992;2024-02-14T00:59:00;8.10;99.90
19483;DHT22;9882;51.166;6.992;2024-02-14T01:01:29;8.10;99.90
19483;DHT22;9882;51.166;6.992;2024-02-14T01:03:59;8.10;99.90
19483;DHT22;9882;51.166;6.992;2024-02-14T01:06:30;8.10;99.90
19483;DHT22;9882;51.166;6.992;2024-02-14T01:08:59;8.10;99.90
19483;DHT22;9882;51.166;6.992;2024-02-14T01:11:28;8.20;99.90
19483;DHT22;9882;51.166;6.992;2024-02-14T01:13:57;8.20;99.90
19483;DHT22;9882;51.166;6.992;2024-02-14T01:16:26;8.20;99.90
19483;DHT22;9882;51.166;6.992;2024-02-14T01:18:55;8.20;99.90
19483;DHT22;9882;51.166;6.992;2024-02-14T01:21:25;8.20;99.90
19483;DHT22;9882;51.166;6.992;2024-02-14T01:23:55;8.20;99.90
19483;DHT22;9882;51.166;6.992;2024-02-14T01:26:25;8.20;99.90
19483;DHT22;9882;51.166;6.992;2024-02-14T01:28:55;8.20;99.90
19483;DHT22;9882;51.166;6.992;2024-02-14T01:31:24;8.20;99.90
19483;DHT22;9882;51.166;6.992;2024-02-14T01:33:53;8.30;99.90
19483;DHT22;9882;51.166;6.992;2024-02-14T01:36:22;8.20;99.90
19483;DHT22;9882;51.166;6.992;2024-02-14T01:38:51;8.20;99.90
19483;DHT22;9882;51.166;6.992;2024-02-14T01:41:22;8.20;99.90
19483;DHT22;9882;51.166;6.992;2024-02-14T01:43:51;8.20;99.90
19483;DHT22;9882;51.166;6.992;2024-02-14T01:46:28;8.30;99.90
19483;DHT22;9882;51.166;6.992;2024-02-14T01:49:24;8.20;99.90
19483;DHT22;9882;51.166;6.992;2024-02-14T01:52:06;8.30;99.90
19483;DHT22;9882;51.166;6.992;2024-02-14T01:54:52;8.30;99.90
19483;DHT22;9882;51.166;6.992;2024-02-14T01:57:46;8.30;99.90
19483;DHT22;9882;51.166;6.992;2024-02-14T02:00:30;8.30;99.90
19483;DHT22;9882;51.166;6.992;2024-02-14T02:03:14;8.30;99.90
19483;DHT22;9882;51.166;6.992;2024-02-14T02:05:55;8.30;99.90
19483;DHT22;9882;51.166;6.992;2024-02-14T02:08:28;8.30;99.90
19483;DHT22;9882;51.166;6.992;2024-02-14T02:10:57;8.40;99.90
19483;DHT22;9882;51.166;6.992;2024-02-14T02:13:47;8.30;99.90
19483;DHT22;9882;51.166;6.992;2024-02-14T02:17:06;8.40;99.90
19483;DHT22;9882;51.166;6.992;2024-02-14T02:19:40;8.40;99.90
19483;DHT22;9882;51.166;6.992;2024-02-14T02:22:10;8.40;99.90
19483;DHT22;9882;51.166;6.992;2024-02-14T02:24:54;8.40;99.90
19483;DHT22;9882;51.166;6.992;2024-02-14T02:27:33;8.30;99.90
19483;DHT22;9882;51.166;6.992;2024-02-14T02:30:09;8.30;99.90
19483;DHT22;9882;51.166;6.992;2024-02-14T02:32:42;8.30;99.90
19483;DHT22;9882;51.166;6.992;2024-02-14T02:35:17;8.40;99.90
19483;DHT22;9882;51.166;6.992;2024-02-14T02:37:47;8.30;99.90
19483;DHT22;9882;51.166;6.992;2024-02-14T02:40:24;8.40;99.90
19483;DHT22;9882;51.166;6.992;2024-02-14T02:42:55;8.40;99.90
19483;DHT22;9882;51.166;6.992;2024-02-14T02:45:23;8.50;99.90
19483;DHT22;9882;51.166;6.992;2024-02-14T02:47:57;8.50;99.90
19483;DHT22;9882;51.166;6.992;2024-02-14T02:50:33;8.50;99.90
19483;DHT22;9882;51.166;6.992;2024-02-14T02:53:06;8.50;99.90
19483;DHT22;9882;51.166;6.992;2024-02-14T02:55:36;8.50;99.90
19483;DHT22;9882;51.166;6.992;2024-02-14T02:58:21;8.60;99.90
19483;DHT22;9882;51.166;6.992;2024-02-14T03:01:11;8.60;99.90
19483;DHT22;9882;51.166;6.992;2024-02-14T03:03:47;8.60;99.90
19483;DHT22;9882;51.166;6.992;2024-02-14T03:06:22;8.50;99.90
19483;DHT22;9882;51.166;6.992;2024-02-14T03:08:58;8.50;99.90
19483;DHT22;9882;51.166;6.992;2024-02-14T03:11:41;8.60;99.90
19483;DHT22;9882;51.166;6.992;2024-02-14T03:14:35;8.50;99.90
19483;DHT22;9882;51.166;6.992;2024-02-14T03:17:05;8.50;99.90
19483;DHT22;9882;51.166;6.992;2024-02-14T03:19:42;8.50;99.90
19483;DHT22;9882;51.166;6.992;2024-02-14T03:22:15;8.40;99.90
19483;DHT22;9882;51.166;6.992;2024-02-14T03:24:58;8.50;99.90
19483;DHT22;9882;51.166;6.992;2024-02-14T03:27:30;8.60;99.90
19483;DHT22;9882;51.166;6.992;2024-02-14T03:30:03;8.60;99.90
19483;DHT22;9882;51.166;6.992;2024-02-14T03:32:38;8.70;99.90
19483;DHT22;9882;51.166;6.992;2024-02-14T03:35:14;8.70;99.90
19483;DHT22;9882;51.166;6.992;2024-02-14T03:37:52;8.80;99.90
19483;DHT22;9882;51.166;6.992;2024-02-14T03:40:21;8.70;99.90
19483;DHT22;9882;51.166;6.992;2024-02-14T03:42:52;8.70;99.90
19483;DHT22;9882;51.166;6.992;2024-02-14T03:45:21;8.70;99.90
19483;DHT22;9882;51.166;6.992;2024-02-14T03:47:50;8.80;99.90
19483;DHT22;9882;51.166;6.992;2024-02-14T03:50:19;8.70;99.90
19483;DHT22;9882;51.166;6.992;2024-02-14T03:52:49;8.70;99.90
19483;DHT22;9882;51.166;6.992;2024-02-14T03:55:20;8.70;99.90
19483;DHT22;9882;51.166;6.992;2024-02-14T03:57:52;8.70;99.90
19483;DHT22;9882;51.166;6.992;2024-02-14T04:00:21;8.80;99.90
19483;DHT22;9882;51.166;6.992;2024-02-14T04:02:55;8.90;99.90
19483;DHT22;9882;51.166;6.992;2024-02-14T04:05:42;8.90;99.90
19483;DHT22;9882;51.166;6.992;2024-02-14T04:08:31;8.80;99.90
19483;DHT22;9882;51.166;6.992;2024-02-14T04:11:28;8.80;99.90
19483;DHT22;9882;51.166;6.992;2024-02-14T04:14:09;8.90;99.90
19483;DHT22;9882;51.166;6.992;2024-02-14T04:16:55;8.90;99.90
19483;DHT22;9882;51.166;6.992;2024-02-14T04:19:27;9.00;99.90
19483;DHT22;9882;51.166;6.992;2024-02-14T04:21:56;9.00;99.90
19483;DHT22;9882;51.166;6.992;2024-02-14T04:24:26;8.90;99.90
19483;DHT22;9882;51.166;6.992;2024-02-14T04:27:02;9.00;99.90
19483;DHT22;9882;51.166;6.992;2024-02-14T04:29:35;9.00;99.90
19483;DHT22;9882;51.166;6.992;2024-02-14T04:32:05;9.10;99.90
19483;DHT22;9882;51.166;6.992;2024-02-14T04:34:44;9.10;99.90
19483;DHT22;9882;51.166;6.992;2024-02-14T04:37:18;9.00;99.90
19483;DHT22;9882;51.166;6.992;2024-02-14T04:39:48;9.10;99.90
19483;DHT22;9882;51.166;6.992;2024-02-14T04:42:18;9.00;99.90
19483;DHT22;9882;51.166;6.992;2024-02-14T04:44:52;9.00;99.90
19483;DHT22;9882;51.166;6.992;2024-02-14T04:47:22;9.00;99.90
19483;DHT22;9882;51.166;6.992;2024-02-14T04:49:51;9.00;99.90
19483;DHT22;9882;51.166;6.992;2024-02-14T04:52:21;9.20;99.90
19483;DHT22;9882;51.166;6.992;2024-02-14T04:54:51;9.10;99.90
19483;DHT22;9882;51.166;6.992;2024-02-14T04:57:22;9.10;99.90
19483;DHT22;9882;51.166;6.992;2024-02-14T04:59:53;9.10;99.90
19483;DHT22;9882;51.166;6.992;2024-02-14T05:02:22;9.20;99.90
19483;DHT22;9882;51.166;6.992;2024-02-14T05:04:51;9.20;99.90
19483;DHT22;9882;51.166;6.992;2024-02-14T05:07:20;9.20;99.90
19483;DHT22;9882;51.166;6.992;2024-02-14T05:09:49;9.20;99.90
19483;DHT22;9882;51.166;6.992;2024-02-14T05:12:20;9.20;99.90
19483;DHT22;9882;51.166;6.992;2024-02-14T05:14:49;9.20;99.90
19483;DHT22;9882;51.166;6.992;2024-02-14T05:17:19;9.20;99.90
19483;DHT22;9882;51.166;6.992;2024-02-14T05:19:49;9.10;99.90
19483;DHT22;9882;51.166;6.992;2024-02-14T05:22:21;9.10;99.90
19483;DHT22;9882;51.166;6.992;2024-02-14T05:24:50;9.10;99.90
19483;DHT22;9882;51.166;6.992;2024-02-14T05:27:20;9.20;99.90
19483;DHT22;9882;51.166;6.992;2024-02-14T05:29:55;9.20;99.90
19483;DHT22;9882;51.166;6.992;2024-02-14T05:32:26;9.20;99.90
19483;DHT22;9882;51.166;6.992;2024-02-14T05:34:56;9.20;99.90
19483;DHT22;9882;51.166;6.992;2024-02-14T05:37:25;9.10;99.90
19483;DHT22;9882;51.166;6.992;2024-02-14T05:39:55;9.10;99.90
19483;DHT22;9882;51.166;6.992;2024-02-14T05:42:24;9.10;99.90
19483;DHT22;9882;51.166;6.992;2024-02-14T05:44:53;9.10;99.90
19483;DHT22;9882;51.166;6.992;2024-02-14T05:47:22;9.20;99.90
19483;DHT22;9882;51.166;6.992;2024-02-14T05:49:54;9.20;99.90
19483;DHT22;9882;51.166;6.992;2024-02-14T05:52:23;9.20;99.90
19483;DHT22;9882;51.166;6.992;2024-02-14T05:54:53;9.20;99.90
19483;DHT22;9882;51.166;6.992;2024-02-14T05:57:22;9.20;99.90
19483;DHT22;9882;51.166;6.992;2024-02-14T05:59:51;9.30;99.90
19483;DHT22;9882;51.166;6.992;2024-02-14T06:02:20;9.30;99.90
19483;DHT22;9882;51.166;6.992;2024-02-14T06:04:50;9.30;99.90
19483;DHT22;9882;51.166;6.992;2024-02-14T06:07:23;9.30;99.90
19483;DHT22;9882;51.166;6.992;2024-02-14T06:10:04;9.30;99.90
19483;DHT22;9882;51.166;6.992;2024-02-14T06:17:18;9.30;99.90
19483;DHT22;9882;51.166;6.992;2024-02-14T06:20:15;9.20;99.90
19483;DHT22;9882;51.166;6.992;2024-02-14T06:23:33;9.20;99.90
19483;DHT22;9882;51.166;6.992;2024-02-14T06:26:21;9.10;99.90
19483;DHT22;9882;51.166;6.992;2024-02-14T06:29:09;9.30;99.90
19483;DHT22;9882;51.166;6.992;2024-02-14T06:31:56;9.30;99.90
19483;DHT22;9882;51.166;6.992;2024-02-14T06:51:58;9.40;99.90
19483;DHT22;9882;51.166;6.992;2024-02-14T06:54:53;9.40;99.90
19483;DHT22;9882;51.166;6.992;2024-02-14T06:57:56;9.40;99.90
19483;DHT22;9882;51.166;6.992;2024-02-14T07:00:59;9.50;99.90
19483;DHT22;9882;51.166;6.992;2024-02-14T07:04:20;9.60;99.90
19483;DHT22;9882;51.166;6.992;2024-02-14T07:06:56;9.40;99.90
19483;DHT22;9882;51.166;6.992;2024-02-14T07:09:30;9.30;99.90
19483;DHT22;9882;51.166;6.992;2024-02-14T07:12:19;9.40;99.90
19483;DHT22;9882;51.166;6.992;2024-02-14T07:15:01;9.40;99.90
19483;DHT22;9882;51.166;6.992;2024-02-14T07:17:46;9.50;99.90
19483;DHT22;9882;51.166;6.992;2024-02-14T07:37:07;9.60;99.90
19483;DHT22;9882;51.166;6.992;2024-02-14T07:54:55;9.50;99.90
19483;DHT22;9882;51.166;6.992;2024-02-14T07:57:28;9.70;99.90
19483;DHT22;9882;51.166;6.992;2024-02-14T08:00:05;9.50;99.90
19483;DHT22;9882;51.166;6.992;2024-02-14T08:02:56;9.60;99.90
19483;DHT22;9882;51.166;6.992;2024-02-14T08:05:41;9.60;99.90
19483;DHT22;9882;51.166;6.992;2024-02-14T08:08:17;9.60;99.90
19483;DHT22;9882;51.166;6.992;2024-02-14T08:10:50;9.70;99.90
19483;DHT22;9882;51.166;6.992;2024-02-14T08:13:22;9.60;99.90
19483;DHT22;9882;51.166;6.992;2024-02-14T08:15:54;9.50;99.90
19483;DHT22;9882;51.166;6.992;2024-02-14T08:18:37;9.60;99.90
19483;DHT22;9882;51.166;6.992;2024-02-14T08:21:07;9.70;99.90
19483;DHT22;9882;51.166;6.992;2024-02-14T08:23:41;9.70;99.90
19483;DHT22;9882;51.166;6.992;2024-02-14T08:26:21;9.70;99.90
19483;DHT22;9882;51.166;6.992;2024-02-14T08:29:10;9.70;99.90
19483;DHT22;9882;51.166;6.992;2024-02-14T08:31:41;9.60;99.90
19483;DHT22;9882;51.166;6.992;2024-02-14T08:34:18;9.60;99.90
19483;DHT22;9882;51.166;6.992;2024-02-14T08:37:26;9.50;99.90
19483;DHT22;9882;51.166;6.992;2024-02-14T08:40:39;9.70;99.90
19483;DHT22;9882;51.166;6.992;2024-02-14T08:49:44;9.70;99.90
19483;DHT22;9882;51.166;6.992;2024-02-14T08:52:15;9.80;99.90
19483;DHT22;9882;51.166;6.992;2024-02-14T08:54:49;9.80;99.90
19483;DHT22;9882;51.166;6.992;2024-02-14T08:57:25;9.90;99.90
19483;DHT22;9882;51.166;6.992;2024-02-14T08:59:59;9.90;99.90
19483;DHT22;9882;51.166;6.992;2024-02-14T09:02:31;9.80;99.90
19483;DHT22;9882;51.166;6.992;2024-02-14T09:05:23;9.80;99.90
19483;DHT22;9882;51.166;6.992;2024-02-14T09:08:32;9.90;99.90
19483;DHT22;9882;51.166;6.992;2024-02-14T09:11:15;9.90;99.90
19483;DHT22;9882;51.166;6.992;2024-02-14T09:13:50;9.90;99.90
19483;DHT22;9882;51.166;6.992;2024-02-14T09:16:27;10.00;99.90
19483;DHT22;9882;51.166;6.992;2024-02-14T09:19:16;10.00;99.90
19483;DHT22;9882;51.166;6.992;2024-02-14T09:24:27;10.00;99.90
19483;DHT22;9882;51.166;6.992;2024-02-14T09:26:59;10.10;99.90
19483;DHT22;9882;51.166;6.992;2024-02-14T09:29:30;10.20;99.90
19483;DHT22;9882;51.166;6.992;2024-02-14T09:31:59;10.10;99.90
19483;DHT22;9882;51.166;6.992;2024-02-14T09:34:41;10.30;99.90
19483;DHT22;9882;51.166;6.992;2024-02-14T09:37:34;10.10;99.90
19483;DHT22;9882;51.166;6.992;2024-02-14T09:40:28;10.10;99.90
19483;DHT22;9882;51.166;6.992;2024-02-14T09:53:33;10.50;99.90
19483;DHT22;9882;51.166;6.992;2024-02-14T09:57:02;10.60;99.90
19483;DHT22;9882;51.166;6.992;2024-02-14T09:59:39;10.70;99.90
19483;DHT22;9882;51.166;6.992;2024-02-14T10:02:22;10.70;99.90
19483;DHT22;9882;51.166;6.992;2024-02-14T10:09:01;10.70;99.90
19483;DHT22;9882;51.166;6.992;2024-02-14T10:11:34;10.70;99.90
19483;DHT22;9882;51.166;6.992;2024-02-14T10:14:08;10.70;99.90
19483;DHT22;9882;51.166;6.992;2024-02-14T10:19:56;10.80;99.90
19483;DHT22;9882;51.166;6.992;2024-02-14T10:22:32;10.90;99.90
19483;DHT22;9882;51.166;6.992;2024-02-14T10:25:05;10.90;99.90
19483;DHT22;9882;51.166;6.992;2024-02-14T10:27:37;10.90;99.90
19483;DHT22;9882;51.166;6.992;2024-02-14T10:30:10;10.90;99.90
19483;DHT22;9882;51.166;6.992;2024-02-14T10:32:43;10.70;99.90
19483;DHT22;9882;51.166;6.992;2024-02-14T10:35:16;10.90;99.90
19483;DHT22;9882;51.166;6.992;2024-02-14T10:37:49;10.90;99.90
19483;DHT22;9882;51.166;6.992;2024-02-14T10:43:50;11.00;99.90
19483;DHT22;9882;51.166;6.992;2024-02-14T10:46:27;11.10;99.90
19483;DHT22;9882;51.166;6.992;2024-02-14T10:49:57;11.10;99.90
19483;DHT22;9882;51.166;6.992;2024-02-14T10:52:44;11.10;99.90
19483;DHT22;9882;51.166;6.992;2024-02-14T10:55:17;11.10;99.90
19483;DHT22;9882;51.166;6.992;2024-02-14T10:57:49;11.20;99.90
19483;DHT22;9882;51.166;6.992;2024-02-14T11:00:20;11.20;99.90
19483;DHT22;9882;51.166;6.992;2024-02-14T11:02:55;11.30;99.90
19483;DHT22;9882;51.166;6.992;2024-02-14T11:05:24;11.20;99.90
19483;DHT22;9882;51.166;6.992;2024-02-14T11:07:54;11.30;99.90
19483;DHT22;9882;51.166;6.992;2024-02-14T11:10:24;11.20;99.90
19483;DHT22;9882;51.166;6.992;2024-02-14T11:12:57;11.30;99.90
19483;DHT22;9882;51.166;6.992;2024-02-14T11:15:29;11.30;99.90
19483;DHT22;9882;51.166;6.992;2024-02-14T11:18:06;11.30;99.90
19483;DHT22;9882;51.166;6.992;2024-02-14T11:20:36;11.30;99.90
19483;DHT22;9882;51.166;6.992;2024-02-14T11:23:08;11.30;99.90
19483;DHT22;9882;51.166;6.992;2024-02-14T11:25:40;11.40;99.90
19483;DHT22;9882;51.166;6.992;2024-02-14T11:28:13;11.40;99.90
19483;DHT22;9882;51.166;6.992;2024-02-14T11:30:46;11.40;99.90
19483;DHT22;9882;51.166;6.992;2024-02-14T11:33:19;11.40;99.90
19483;DHT22;9882;51.166;6.992;2024-02-14T11:35:50;11.40;99.90
19483;DHT22;9882;51.166;6.992;2024-02-14T11:38:21;11.60;99.90
19483;DHT22;9882;51.166;6.992;2024-02-14T11:40:53;11.70;99.90
19483;DHT22;9882;51.166;6.992;2024-02-14T11:43:24;11.70;99.90
19483;DHT22;9882;51.166;6.992;2024-02-14T11:45:54;11.70;99.90
19483;DHT22;9882;51.166;6.992;2024-02-14T11:48:25;11.80;99.90
19483;DHT22;9882;51.166;6.992;2024-02-14T11:50:57;11.70;99.90
19483;DHT22;9882;51.166;6.992;2024-02-14T11:53:27;11.80;99.90
19483;DHT22;9882;51.166;6.992;2024-02-14T11:55:58;12.00;99.90
19483;DHT22;9882;51.166;6.992;2024-02-14T11:58:27;12.00;99.90
19483;DHT22;9882;51.166;6.992;2024-02-14T12:00:56;12.00;99.90
19483;DHT22;9882;51.166;6.992;2024-02-14T12:03:27;12.00;99.90
19483;DHT22;9882;51.166;6.992;2024-02-14T12:06:17;12.10;99.90
19483;DHT22;9882;51.166;6.992;2024-02-14T12:17:56;12.10;99.90
19483;DHT22;9882;51.166;6.992;2024-02-14T12:20:38;12.00;99.90
19483;DHT22;9882;51.166;6.992;2024-02-14T12:23:14;12.00;99.90
19483;DHT22;9882;51.166;6.992;2024-02-14T12:29:13;12.00;99.90
19483;DHT22;9882;51.166;6.992;2024-02-14T12:31:45;12.00;99.90
19483;DHT22;9882;51.166;6.992;2024-02-14T12:34:22;12.00;99.90
19483;DHT22;9882;51.166;6.992;2024-02-14T12:36:53;12.00;99.90
19483;DHT22;9882;51.166;6.992;2024-02-14T12:39:23;12.00;99.90
19483;DHT22;9882;51.166;6.992;2024-02-14T12:41:53;12.10;99.90
19483;DHT22;9882;51.166;6.992;2024-02-14T12:44:23;12.10;99.90
19483;DHT22;9882;51.166;6.992;2024-02-14T12:46:52;12.00;99.90
19483;DHT22;9882;51.166;6.992;2024-02-14T12:49:22;12.00;99.90
19483;DHT22;9882;51.166;6.992;2024-02-14T12:51:55;12.10;99.90
19483;DHT22;9882;51.166;6.992;2024-02-14T12:54:25;12.10;99.90
19483;DHT22;9882;51.166;6.992;2024-02-14T12:56:54;12.10;99.90
19483;DHT22;9882;51.166;6.992;2024-02-14T12:59:27;12.20;99.90
19483;DHT22;9882;51.166;6.992;2024-02-14T13:02:02;12.10;99.90
19483;DHT22;9882;51.166;6.992;2024-02-14T13:04:36;12.20;99.90
19483;DHT22;9882;51.166;6.992;2024-02-14T13:07:10;12.10;99.90
19483;DHT22;9882;51.166;6.992;2024-02-14T13:09:41;12.20;99.90
19483;DHT22;9882;51.166;6.992;2024-02-14T13:12:11;12.10;99.90
19483;DHT22;9882;51.166;6.992;2024-02-14T13:14:42;12.20;99.90
19483;DHT22;9882;51.166;6.992;2024-02-14T13:17:13;12.20;99.90
19483;DHT22;9882;51.166;6.992;2024-02-14T13:19:44;12.30;99.90
19483;DHT22;9882;51.166;6.992;2024-02-14T13:22:19;12.30;99.90
19483;DHT22;9882;51.166;6.992;2024-02-14T13:24:52;12.40;99.90
19483;DHT22;9882;51.166;6.992;2024-02-14T13:27:39;12.40;99.90
19483;DHT22;9882;51.166;6.992;2024-02-14T13:30:09;12.30;99.90
19483;DHT22;9882;51.166;6.992;2024-02-14T13:32:39;12.30;99.90
19483;DHT22;9882;51.166;6.992;2024-02-14T13:35:12;12.30;99.90
19483;DHT22;9882;51.166;6.992;2024-02-14T13:41:03;12.20;99.90
19483;DHT22;9882;51.166;6.992;2024-02-14T13:43:32;12.30;99.90
19483;DHT22;9882;51.166;6.992;2024-02-14T13:46:01;12.20;99.90
19483;DHT22;9882;51.166;6.992;2024-02-14T13:48:30;12.20;99.90
19483;DHT22;9882;51.166;6.992;2024-02-14T13:50:59;12.20;99.90
19483;DHT22;9882;51.166;6.992;2024-02-14T13:53:28;12.20;99.90
19483;DHT22;9882;51.166;6.992;2024-02-14T13:56:19;12.20;99.90
19483;DHT22;9882;51.166;6.992;2024-02-14T13:59:09;12.20;99.90
19483;DHT22;9882;51.166;6.992;2024-02-14T14:01:39;12.30;99.90
19483;DHT22;9882;51.166;6.992;2024-02-14T14:19:59;12.20;99.90
19483;DHT22;9882;51.166;6.992;2024-02-14T14:22:32;12.20;99.90
19483;DHT22;9882;51.166;6.992;2024-02-14T14:25:02;12.30;99.90
19483;DHT22;9882;51.166;6.992;2024-02-14T14:27:32;12.40;99.90
19483;DHT22;9882;51.166;6.992;2024-02-14T14:30:02;12.30;99.90
19483;DHT22;9882;51.166;6.992;2024-02-14T14:32:33;12.30;99.90
19483;DHT22;9882;51.166;6.992;2024-02-14T14:35:05;12.30;99.90
19483;DHT22;9882;51.166;6.992;2024-02-14T14:37:36;12.30;99.90
19483;DHT22;9882;51.166;6.992;2024-02-14T14:40:07;12.30;99.90
19483;DHT22;9882;51.166;6.992;2024-02-14T14:42:38;12.30;99.90
19483;DHT22;9882;51.166;6.992;2024-02-14T14:46:22;12.40;99.90
19483;DHT22;9882;51.166;6.992;2024-02-14T14:48:55;12.40;99.90
19483;DHT22;9882;51.166;6.992;2024-02-14T14:51:27;12.40;99.90
19483;DHT22;9882;51.166;6.992;2024-02-14T14:54:14;12.50;99.90
19483;DHT22;9882;51.166;6.992;2024-02-14T14:56:53;12.50;99.90
19483;DHT22;9882;51.166;6.992;2024-02-14T14:59:30;12.50;99.90
19483;DHT22;9882;51.166;6.992;2024-02-14T15:02:03;12.50;99.90
19483;DHT22;9882;51.166;6.992;2024-02-14T15:04:35;12.60;99.90
19483;DHT22;9882;51.166;6.992;2024-02-14T15:07:16;12.60;99.90
19483;DHT22;9882;51.166;6.992;2024-02-14T15:09:47;12.60;99.90
19483;DHT22;9882;51.166;6.992;2024-02-14T15:12:16;12.70;99.90
19483;DHT22;9882;51.166;6.992;2024-02-14T15:14:47;12.80;99.90
19483;DHT22;9882;51.166;6.992;2024-02-14T15:17:16;12.70;99.90
19483;DHT22;9882;51.166;6.992;2024-02-14T15:19:45;12.80;99.90
19483;DHT22;9882;51.166;6.992;2024-02-14T15:22:24;12.80;99.90
19483;DHT22;9882;51.166;6.992;2024-02-14T15:24:55;12.90;99.90
19483;DHT22;9882;51.166;6.992;2024-02-14T15:27:25;13.00;99.90
19483;DHT22;9882;51.166;6.992;2024-02-14T15:29:56;12.90;99.90
19483;DHT22;9882;51.166;6.992;2024-02-14T15:32:43;13.00;99.90
19483;DHT22;9882;51.166;6.992;2024-02-14T15:35:29;13.00;99.90
19483;DHT22;9882;51.166;6.992;2024-02-14T15:37:59;13.10;99.90
19483;DHT22;9882;51.166;6.992;2024-02-14T15:40:29;13.10;99.90
19483;DHT22;9882;51.166;6.992;2024-02-14T15:43:01;13.10;99.90
19483;DHT22;9882;51.166;6.992;2024-02-14T15:45:31;13.20;99.90
19483;DHT22;9882;51.166;6.992;2024-02-14T15:48:00;13.20;99.90
19483;DHT22;9882;51.166;6.992;2024-02-14T15:50:30;13.30;99.90
19483;DHT22;9882;51.166;6.992;2024-02-14T15:53:01;13.20;99.90
19483;DHT22;9882;51.166;6.992;2024-02-14T15:55:30;13.20;99.90
19483;DHT22;9882;51.166;6.992;2024-02-14T15:57:59;13.30;99.90
19483;DHT22;9882;51.166;6.992;2024-02-14T16:00:29;13.30;99.90
19483;DHT22;9882;51.166;6.992;2024-02-14T16:02:59;13.20;99.90
19483;DHT22;9882;51.166;6.992;2024-02-14T16:05:30;13.30;99.90
19483;DHT22;9882;51.166;6.992;2024-02-14T16:08:00;13.40;99.90
19483;DHT22;9882;51.166;6.992;2024-02-14T16:10:30;13.40;99.90
19483;DHT22;9882;51.166;6.992;2024-02-14T16:12:59;13.40;99.90
19483;DHT22;9882;51.166;6.992;2024-02-14T16:15:29;13.50;99.90
19483;DHT22;9882;51.166;6.992;2024-02-14T16:18:02;13.40;99.90
19483;DHT22;9882;51.166;6.992;2024-02-14T16:20:31;13.50;99.90
19483;DHT22;9882;51.166;6.992;2024-02-14T16:23:02;13.40;99.90
19483;DHT22;9882;51.166;6.992;2024-02-14T16:25:33;13.50;99.90
19483;DHT22;9882;51.166;6.992;2024-02-14T16:28:05;13.40;99.90
19483;DHT22;9882;51.166;6.992;2024-02-14T16:30:35;13.50;99.90
19483;DHT22;9882;51.166;6.992;2024-02-14T16:33:07;13.40;99.90
19483;DHT22;9882;51.166;6.992;2024-02-14T16:36:04;13.50;99.90
19483;DHT22;9882;51.166;6.992;2024-02-14T16:38:36;13.50;99.90
19483;DHT22;9882;51.166;6.992;2024-02-14T16:41:05;13.40;99.90
19483;DHT22;9882;51.166;6.992;2024-02-14T16:43:36;13.40;99.90
19483;DHT22;9882;51.166;6.992;2024-02-14T16:46:07;13.30;99.90
19483;DHT22;9882;51.166;6.992;2024-02-14T16:48:37;13.20;99.90
19483;DHT22;9882;51.166;6.992;2024-02-14T16:51:06;13.10;99.90
19483;DHT22;9882;51.166;6.992;2024-02-14T16:53:39;13.20;99.90
19483;DHT22;9882;51.166;6.992;2024-02-14T16:56:09;13.10;99.90
19483;DHT22;9882;51.166;6.992;2024-02-14T16:58:38;13.10;99.90
19483;DHT22;9882;51.166;6.992;2024-02-14T17:01:07;13.00;99.90
19483;DHT22;9882;51.166;6.992;2024-02-14T17:03:36;13.10;99.90
19483;DHT22;9882;51.166;6.992;2024-02-14T17:06:07;13.00;99.90
19483;DHT22;9882;51.166;6.992;2024-02-14T17:08:44;13.00;99.90
19483;DHT22;9882;51.166;6.992;2024-02-14T17:11:13;12.90;99.90
19483;DHT22;9882;51.166;6.992;2024-02-14T17:13:47;13.00;99.90
19483;DHT22;9882;51.166;6.992;2024-02-14T17:16:16;13.00;99.90
19483;DHT22;9882;51.166;6.992;2024-02-14T17:18:50;13.00;99.90
19483;DHT22;9882;51.166;6.992;2024-02-14T17:21:20;12.90;99.90
19483;DHT22;9882;51.166;6.992;2024-02-14T17:23:54;12.90;99.90
19483;DHT22;9882;51.166;6.992;2024-02-14T17:26:23;12.80;99.90
19483;DHT22;9882;51.166;6.992;2024-02-14T17:28:54;12.90;99.90
19483;DHT22;9882;51.166;6.992;2024-02-14T17:31:22;13.00;99.90
19483;DHT22;9882;51.166;6.992;2024-02-14T17:33:51;13.00;99.90
19483;DHT22;9882;51.166;6.992;2024-02-14T17:36:22;12.90;99.90
19483;DHT22;9882;51.166;6.992;2024-02-14T17:38:54;12.90;99.90
19483;DHT22;9882;51.166;6.992;2024-02-14T17:41:26;12.90;99.90
19483;DHT22;9882;51.166;6.992;2024-02-14T17:43:54;12.90;99.90
19483;DHT22;9882;51.166;6.992;2024-02-14T17:46:23;12.80;99.90
19483;DHT22;9882;51.166;6.992;2024-02-14T17:48:52;12.90;99.90
19483;DHT22;9882;51.166;6.992;2024-02-14T17:51:24;12.90;99.90
19483;DHT22;9882;51.166;6.992;2024-02-14T17:53:56;12.80;99.90
19483;DHT22;9882;51.166;6.992;2024-02-14T17:56:25;12.90;99.90
19483;DHT22;9882;51.166;6.992;2024-02-14T17:58:53;13.00;99.90
19483;DHT22;9882;51.166;6.992;2024-02-14T18:01:22;12.90;99.90
19483;DHT22;9882;51.166;6.992;2024-02-14T18:03:51;12.90;99.90
19483;DHT22;9882;51.166;6.992;2024-02-14T18:06:21;12.80;99.90
19483;DHT22;9882;51.166;6.992;2024-02-14T18:08:50;12.90;99.90
19483;DHT22;9882;51.166;6.992;2024-02-14T18:11:20;12.90;99.90
19483;DHT22;9882;51.166;6.992;2024-02-14T18:13:49;12.90;99.90
19483;DHT22;9882;51.166;6.992;2024-02-14T18:16:20;12.90;99.90
19483;DHT22;9882;51.166;6.992;2024-02-14T18:18:48;12.90;99.90
19483;DHT22;9882;51.166;6.992;2024-02-14T18:21:18;12.80;99.90
19483;DHT22;9882;51.166;6.992;2024-02-14T18:23:46;12.80;99.90
19483;DHT22;9882;51.166;6.992;2024-02-14T18:26:17;12.80;99.90
19483;DHT22;9882;51.166;6.992;2024-02-14T18:28:47;12.80;99.90
19483;DHT22;9882;51.166;6.992;2024-02-14T18:31:16;12.80;99.90
19483;DHT22;9882;51.166;6.992;2024-02-14T18:33:45;12.80;99.90
19483;DHT22;9882;51.166;6.992;2024-02-14T18:36:14;12.60;99.90
19483;DHT22;9882;51.166;6.992;2024-02-14T18:38:45;12.80;99.90